createdAt,value
2022-10-04T00:01:59.246Z,97.65
2022-10-04T00:04:35.068Z,97.60
2022-10-04T00:07:16.240Z,97.96
2022-10-04T00:09:50.247Z,98.03
2022-10-04T00:12:25.712Z,98.16
2022-10-04T00:14:55.407Z,98.39
2022-10-04T00:17:27.922Z,98.28
2022-10-04T00:19:55.409Z,97.93
2022-10-04T00:22:30.176Z,98.07
2022-10-04T00:25:09.887Z,98.19
2022-10-04T00:27:38.330Z,98.35
2022-10-04T00:30:04.736Z,98.10
2022-10-04T00:32:40.422Z,98.25
2022-10-04T00:35:25.051Z,97.91
2022-10-04T00:37:59.873Z,98.53
2022-10-04T00:40:33.891Z,98.50
2022-10-04T00:43:08.755Z,98.78
2022-10-04T00:45:39.688Z,98.94
2022-10-04T00:48:31.222Z,99.05
2022-10-04T00:51:11.253Z,98.94
2022-10-04T00:53:59.535Z,99.46
2022-10-04T00:56:32.761Z,99.10
2022-10-04T00:58:59.068Z,99.47
2022-10-04T01:01:28.671Z,99.27
2022-10-04T01:03:57.580Z,99.35
2022-10-04T01:06:26.343Z,99.30
2022-10-04T01:09:01.164Z,99.48
2022-10-04T01:11:31.219Z,99.11
2022-10-04T01:14:11.150Z,98.94
2022-10-04T01:16:37.881Z,99.35
2022-10-04T01:19:22.558Z,98.96
2022-10-04T01:22:14.398Z,99.50
2022-10-04T01:24:43.295Z,99.19
2022-10-04T01:27:31.456Z,99.29
2022-10-04T01:29:58.896Z,99.42
2022-10-04T01:32:25.560Z,99.63
2022-10-04T01:34:52.114Z,99.98
2022-10-04T01:37:18.750Z,99.90
2022-10-04T01:39:45.204Z,100.00
2022-10-04T01:42:23.288Z,99.80
2022-10-04T01:45:12.432Z,99.92
2022-10-04T01:47:49.360Z,100.00
2022-10-04T01:50:22.179Z,99.78
2022-10-04T01:52:55.552Z,100.00
2022-10-04T01:55:37.507Z,99.71
2022-10-04T01:58:09.156Z,99.23
2022-10-04T02:00:41.156Z,99.57
2022-10-04T02:03:21.022Z,99.54
2022-10-04T02:05:59.124Z,99.72
2022-10-04T02:08:29.691Z,99.46
2022-10-04T02:10:57.591Z,100.00
2022-10-04T02:13:29.879Z,99.38
2022-10-04T02:15:58.344Z,99.53
2022-10-04T02:18:25.925Z,99.63
2022-10-04T02:20:54.947Z,99.32
2022-10-04T02:23:22.943Z,98.96
2022-10-04T02:25:49.717Z,99.24
2022-10-04T02:28:18.692Z,99.03
2022-10-04T02:31:09.304Z,98.80
2022-10-04T02:33:43.758Z,99.09
2022-10-04T02:36:10.933Z,98.80
2022-10-04T02:38:49.599Z,98.83
2022-10-04T02:41:26.889Z,98.86
2022-10-04T02:43:56.557Z,98.60
2022-10-04T02:46:33.710Z,97.93
2022-10-04T02:49:05.905Z,97.97
2022-10-04T02:51:46.700Z,97.90
2022-10-04T02:54:30.913Z,97.83
2022-10-04T02:56:58.420Z,97.87
2022-10-04T02:59:25.349Z,97.79
2022-10-04T03:02:00.094Z,97.88
2022-10-04T03:04:33.979Z,98.24
2022-10-04T03:07:04.995Z,98.33
2022-10-04T03:09:32.289Z,98.81
2022-10-04T03:11:59.048Z,99.02
2022-10-04T03:14:27.936Z,99.32
2022-10-04T03:16:57.212Z,99.55
2022-10-04T03:19:26.818Z,99.57
2022-10-04T03:21:56.026Z,99.54
2022-10-04T03:24:27.222Z,99.88
2022-10-04T03:26:56.463Z,99.99
2022-10-04T03:29:27.475Z,100.00
2022-10-04T03:31:58.119Z,100.00
2022-10-04T03:34:52.691Z,100.00
2022-10-04T03:37:21.137Z,100.00
2022-10-04T03:39:50.495Z,100.00
2022-10-04T03:42:23.465Z,99.78
2022-10-04T03:44:54.073Z,99.73
2022-10-04T03:47:26.136Z,99.87
2022-10-04T03:49:55.337Z,99.33
2022-10-04T03:52:30.785Z,99.51
2022-10-04T03:55:02.257Z,99.35
2022-10-04T03:57:30.327Z,99.29
2022-10-04T03:59:57.960Z,98.96
2022-10-04T04:02:27.344Z,98.57
2022-10-04T04:05:05.911Z,98.38
2022-10-04T04:07:43.604Z,98.79
2022-10-04T04:10:18.609Z,98.25
2022-10-04T04:12:56.768Z,97.86
2022-10-04T04:15:27.725Z,98.25
2022-10-04T04:17:55.137Z,97.87
2022-10-04T04:20:32.735Z,98.01
2022-10-04T04:23:23.494Z,98.04
2022-10-04T04:25:55.503Z,98.05
2022-10-04T04:28:36.547Z,98.02
2022-10-04T04:31:08.424Z,97.69
2022-10-04T04:33:41.531Z,97.72
2022-10-04T04:36:11.846Z,97.28
2022-10-04T04:39:00.923Z,97.54
2022-10-04T04:41:31.240Z,97.47
2022-10-04T04:43:58.240Z,97.45
2022-10-04T04:46:27.974Z,97.52
2022-10-04T04:49:02.458Z,97.38
2022-10-04T04:51:31.492Z,97.44
2022-10-04T04:54:00.712Z,97.56
2022-10-04T04:56:29.331Z,97.75
2022-10-04T04:58:59.532Z,97.89
2022-10-04T05:01:34.844Z,98.19
2022-10-04T05:04:09.879Z,98.11
2022-10-04T05:06:39.412Z,97.98
2022-10-04T05:09:06.601Z,98.23
2022-10-04T05:11:36.176Z,98.06
2022-10-04T05:14:09.949Z,98.03
2022-10-04T05:16:48.680Z,98.54
2022-10-04T05:19:32.329Z,98.41
2022-10-04T05:22:02.386Z,98.31
2022-10-04T05:24:36.257Z,98.77
2022-10-04T05:27:05.813Z,98.86
2022-10-04T05:29:37.349Z,98.79
2022-10-04T05:32:26.412Z,99.05
2022-10-04T05:34:54.464Z,99.35
2022-10-04T05:37:29.980Z,99.72
2022-10-04T05:40:11.273Z,99.75
2022-10-04T05:42:45.112Z,99.98
2022-10-04T05:45:25.563Z,100.00
2022-10-04T05:48:00.968Z,100.00
2022-10-04T05:50:35.064Z,100.00
2022-10-04T05:53:32.910Z,100.00
2022-10-04T05:56:12.475Z,100.00
2022-10-04T05:58:56.462Z,100.00
2022-10-04T06:01:34.552Z,100.00
2022-10-04T06:04:28.434Z,100.00
2022-10-04T06:07:00.916Z,100.00
2022-10-04T06:10:05.071Z,100.00
2022-10-04T06:12:58.585Z,100.00
2022-10-04T06:15:48.753Z,100.00
2022-10-04T06:18:50.596Z,100.00
2022-10-04T06:21:31.053Z,100.00
2022-10-04T06:24:11.873Z,100.00
2022-10-04T06:26:47.390Z,100.00
2022-10-04T06:29:20.549Z,100.00
2022-10-04T06:31:57.246Z,100.00
2022-10-04T06:35:00.760Z,100.00
2022-10-04T06:38:04.943Z,100.00
2022-10-04T06:41:02.291Z,100.00
2022-10-04T06:43:43.553Z,100.00
2022-10-04T06:46:16.072Z,100.00
2022-10-04T06:48:57.784Z,100.00
2022-10-04T06:51:51.535Z,100.00
2022-10-04T06:54:24.398Z,100.00
2022-10-04T06:57:11.722Z,100.00
2022-10-04T07:00:13.831Z,100.00
2022-10-04T07:02:49.508Z,100.00
2022-10-04T07:05:39.626Z,100.00
2022-10-04T07:08:31.096Z,100.00
2022-10-04T07:11:35.327Z,100.00
2022-10-04T07:14:25.187Z,100.00
2022-10-04T07:16:57.768Z,100.00
2022-10-04T07:19:36.739Z,99.85
2022-10-04T07:22:15.157Z,100.00
2022-10-04T07:24:44.320Z,99.67
2022-10-04T07:27:16.936Z,99.40
2022-10-04T07:29:46.484Z,98.83
2022-10-04T07:32:21.170Z,98.13
2022-10-04T07:35:14.168Z,97.68
2022-10-04T07:37:54.994Z,97.19
2022-10-04T07:40:33.424Z,96.76
2022-10-04T07:43:08.068Z,95.99
2022-10-04T07:45:40.769Z,95.83
2022-10-04T07:48:15.554Z,95.63
2022-10-04T07:50:51.539Z,93.81
2022-10-04T07:53:26.645Z,93.44
2022-10-04T07:56:17.988Z,92.86
2022-10-04T07:59:12.294Z,91.71
2022-10-04T08:01:54.229Z,91.04
2022-10-04T08:04:30.309Z,91.85
2022-10-04T08:07:02.249Z,90.39
2022-10-04T08:09:43.887Z,90.34
2022-10-04T08:12:34.637Z,90.43
2022-10-04T08:15:13.514Z,90.92
2022-10-04T08:18:01.973Z,91.17
2022-10-04T08:20:47.379Z,89.66
2022-10-04T08:23:41.653Z,89.41
2022-10-04T08:26:33.787Z,88.84
2022-10-04T08:29:35.791Z,86.92
2022-10-04T08:32:27.489Z,87.27
2022-10-04T08:35:19.880Z,86.51
2022-10-04T08:38:04.488Z,84.30
2022-10-04T08:40:45.619Z,84.82
2022-10-04T08:43:25.542Z,83.84
2022-10-04T08:46:35.078Z,83.67
2022-10-04T08:49:39.409Z,83.83
2022-10-04T08:52:24.736Z,82.92
2022-10-04T08:55:13.310Z,82.95
2022-10-04T08:58:01.604Z,81.43
2022-10-04T09:00:48.832Z,81.50
2022-10-04T09:03:36.742Z,80.42
2022-10-04T09:06:32.381Z,80.91
2022-10-04T09:09:40.560Z,79.59
2022-10-04T09:12:20.087Z,79.12
2022-10-04T09:15:31.245Z,79.73
2022-10-04T09:18:13.016Z,79.26
2022-10-04T09:20:42.480Z,78.68
2022-10-04T09:23:39.013Z,77.16
2022-10-04T09:26:33.049Z,76.52
2022-10-04T09:29:15.889Z,77.08
2022-10-04T09:32:08.176Z,76.94
2022-10-04T09:34:59.314Z,76.83
2022-10-04T09:37:44.066Z,75.98
2022-10-04T09:40:46.569Z,76.26
2022-10-04T09:43:34.612Z,76.36
2022-10-04T09:46:34.917Z,76.51
2022-10-04T09:49:19.341Z,76.20
2022-10-04T09:51:59.442Z,75.72
2022-10-04T09:55:05.128Z,75.32
2022-10-04T09:58:29.338Z,75.68
2022-10-04T10:01:38.916Z,76.13
2022-10-04T10:04:47.424Z,77.20
2022-10-04T10:07:41.739Z,76.38
2022-10-04T10:10:36.680Z,75.87
2022-10-04T10:13:40.221Z,74.92
2022-10-04T10:16:29.959Z,74.44
2022-10-04T10:19:16.205Z,74.62
2022-10-04T10:21:55.840Z,73.66
2022-10-04T10:24:57.473Z,73.75
2022-10-04T10:27:27.547Z,73.44
2022-10-04T10:29:56.974Z,74.54
2022-10-04T10:32:34.976Z,74.87
2022-10-04T10:35:42.708Z,73.72
2022-10-04T10:38:40.173Z,73.28
2022-10-04T10:41:48.924Z,73.49
2022-10-04T10:44:34.548Z,72.61
2022-10-04T10:47:30.980Z,73.52
2022-10-04T10:50:58.489Z,74.29
2022-10-04T10:53:36.846Z,73.21
2022-10-04T10:56:29.958Z,72.71
2022-10-04T10:59:24.558Z,72.63
2022-10-04T11:02:10.203Z,72.38
2022-10-04T11:05:10.870Z,71.93
2022-10-04T11:07:40.187Z,71.84
2022-10-04T11:10:42.017Z,71.58
2022-10-04T11:13:36.256Z,71.52
2022-10-04T11:16:37.766Z,70.81
2022-10-04T11:19:39.174Z,70.54
2022-10-04T11:22:17.205Z,70.23
2022-10-04T11:25:08.016Z,69.98
2022-10-04T11:27:58.343Z,69.13
2022-10-04T11:30:53.864Z,68.38
2022-10-04T11:33:52.849Z,69.46
2022-10-04T11:36:43.588Z,68.80
2022-10-04T11:39:57.845Z,69.75
2022-10-04T11:42:36.180Z,66.37
2022-10-04T11:45:20.330Z,67.24
2022-10-04T11:47:59.820Z,67.45
2022-10-04T11:50:41.494Z,68.11
2022-10-04T11:53:11.805Z,71.07
2022-10-04T11:56:04.465Z,68.89
2022-10-04T11:58:46.162Z,69.15
2022-10-04T12:01:45.218Z,68.96
2022-10-04T12:04:21.394Z,67.93
2022-10-04T12:07:08.247Z,66.99
2022-10-04T12:09:46.148Z,67.60
2022-10-04T12:12:47.262Z,67.20
2022-10-04T12:15:32.720Z,66.18
2022-10-04T12:18:19.709Z,65.79
2022-10-04T12:21:01.707Z,66.43
2022-10-04T12:23:53.900Z,67.57
2022-10-04T12:26:23.286Z,67.35
2022-10-04T12:28:58.383Z,65.65
2022-10-04T12:31:37.008Z,65.68
2022-10-04T12:34:16.539Z,66.72
2022-10-04T12:36:51.879Z,66.94
2022-10-04T12:39:28.989Z,65.91
2022-10-04T12:42:20.647Z,66.82
2022-10-04T12:44:57.843Z,65.64
2022-10-04T12:47:51.103Z,65.77
2022-10-04T12:50:36.340Z,64.00
2022-10-04T12:53:22.100Z,65.06
2022-10-04T12:56:13.217Z,65.49
2022-10-04T12:59:03.146Z,63.66
2022-10-04T13:01:47.874Z,63.75
2022-10-04T13:04:30.397Z,63.96
2022-10-04T13:07:26.087Z,62.95
2022-10-04T13:10:24.570Z,64.23
2022-10-04T13:13:25.512Z,64.72
2022-10-04T13:19:19.347Z,62.40
2022-10-04T13:22:12.128Z,63.38
2022-10-04T13:24:56.707Z,62.90
2022-10-04T13:27:48.155Z,63.29
2022-10-04T13:30:24.096Z,63.47
2022-10-04T13:33:02.602Z,63.29
2022-10-04T13:35:37.006Z,64.60
2022-10-04T13:38:15.570Z,63.46
2022-10-04T13:41:19.663Z,63.32
2022-10-04T13:44:19.223Z,63.39
2022-10-04T13:47:04.592Z,63.95
2022-10-04T13:50:02.184Z,64.36
2022-10-04T13:53:06.136Z,63.31
2022-10-04T13:55:59.023Z,63.66
2022-10-04T13:58:34.889Z,64.46
2022-10-04T14:01:22.907Z,64.71
2022-10-04T14:04:31.377Z,65.02
2022-10-04T14:07:26.951Z,64.35
2022-10-04T14:10:27.340Z,65.26
2022-10-04T14:13:19.907Z,65.39
2022-10-04T14:15:56.249Z,66.39
2022-10-04T14:19:00.261Z,65.20
2022-10-04T14:21:52.699Z,65.51
2022-10-04T14:25:08.166Z,66.28
2022-10-04T14:28:13.772Z,65.86
2022-10-04T14:31:01.794Z,65.99
2022-10-04T14:33:49.598Z,66.85
2022-10-04T14:36:18.592Z,67.07
2022-10-04T14:39:06.221Z,66.67
2022-10-04T14:42:04.471Z,67.20
2022-10-04T14:45:00.482Z,67.57
2022-10-04T14:48:20.706Z,67.06
2022-10-04T14:51:16.496Z,67.39
2022-10-04T14:54:10.046Z,66.94
2022-10-04T14:57:00.669Z,67.30
2022-10-04T14:59:45.426Z,68.87
2022-10-04T15:02:33.063Z,67.80
2022-10-04T15:05:02.733Z,67.62
2022-10-04T15:07:35.872Z,67.37
2022-10-04T15:10:35.605Z,67.71
2022-10-04T15:13:11.592Z,68.43
2022-10-04T15:16:22.036Z,67.72
2022-10-04T15:18:54.163Z,68.32
2022-10-04T15:21:32.636Z,68.47
2022-10-04T15:24:19.264Z,67.83
2022-10-04T15:27:00.879Z,69.01
2022-10-04T15:30:09.652Z,69.05
2022-10-04T15:33:10.002Z,68.62
2022-10-04T15:36:02.226Z,69.50
2022-10-04T15:38:44.813Z,69.86
2022-10-04T15:41:37.508Z,70.55
2022-10-04T15:44:13.971Z,70.33
2022-10-04T15:46:49.522Z,71.46
2022-10-04T15:49:32.847Z,72.38
2022-10-04T15:52:44.297Z,71.86
2022-10-04T15:55:16.570Z,72.95
2022-10-04T15:57:45.914Z,72.88
2022-10-04T16:00:22.776Z,73.15
2022-10-04T16:03:13.808Z,72.44
2022-10-04T16:06:07.872Z,73.25
2022-10-04T16:08:52.435Z,73.21
2022-10-04T16:11:35.563Z,73.42
2022-10-04T16:14:20.481Z,73.82
2022-10-04T16:16:59.872Z,73.94
2022-10-04T16:19:53.914Z,73.46
2022-10-04T16:22:29.125Z,74.79
2022-10-04T16:25:24.439Z,74.91
2022-10-04T16:27:56.897Z,75.05
2022-10-04T16:30:29.263Z,75.51
2022-10-04T16:32:58.431Z,76.09
2022-10-04T16:35:37.266Z,76.72
2022-10-04T16:38:12.537Z,77.23
2022-10-04T16:41:11.084Z,76.56
2022-10-04T16:43:49.668Z,77.53
2022-10-04T16:46:16.049Z,77.99
2022-10-04T16:48:51.622Z,77.29
2022-10-04T16:51:17.960Z,77.36
2022-10-04T16:53:50.444Z,78.41
2022-10-04T16:56:22.912Z,78.27
2022-10-04T16:59:00.304Z,78.73
2022-10-04T17:01:45.313Z,78.49
2022-10-04T17:04:40.319Z,78.85
2022-10-04T17:07:09.722Z,78.72
2022-10-04T17:09:58.061Z,78.34
2022-10-04T17:12:37.140Z,78.81
2022-10-04T17:15:24.602Z,79.01
2022-10-04T17:18:11.204Z,79.12
2022-10-04T17:20:43.496Z,78.94
2022-10-04T17:23:38.215Z,78.56
2022-10-04T17:26:23.516Z,79.29
2022-10-04T17:28:56.602Z,79.36
2022-10-04T17:32:01.193Z,79.79
2022-10-04T17:34:48.943Z,79.26
2022-10-04T17:37:28.520Z,78.95
2022-10-04T17:40:13.173Z,79.29
2022-10-04T17:43:00.524Z,79.52
2022-10-04T17:45:47.557Z,79.69
2022-10-04T17:48:47.488Z,79.79
2022-10-04T17:51:41.443Z,79.88
2022-10-04T17:54:34.835Z,80.02
2022-10-04T17:57:03.940Z,80.30
2022-10-04T17:59:41.037Z,80.13
2022-10-04T18:02:17.892Z,80.48
2022-10-04T18:04:58.273Z,80.80
2022-10-04T18:07:28.450Z,81.09
2022-10-04T18:10:02.119Z,80.43
2022-10-04T18:12:50.576Z,80.59
2022-10-04T18:16:03.730Z,80.51
2022-10-04T18:18:39.236Z,80.80
2022-10-04T18:21:18.962Z,81.43
2022-10-04T18:24:19.818Z,81.24
2022-10-04T18:27:00.527Z,81.16
2022-10-04T18:29:42.100Z,81.46
2022-10-04T18:32:29.725Z,81.16
2022-10-04T18:34:58.944Z,81.89
2022-10-04T18:37:33.814Z,81.78
2022-10-04T18:40:20.860Z,81.98
2022-10-04T18:42:57.494Z,82.05
2022-10-04T18:45:28.165Z,81.66
2022-10-04T18:47:56.499Z,82.15
2022-10-04T18:50:37.907Z,82.18
2022-10-04T18:53:36.844Z,82.18
2022-10-04T18:56:07.553Z,82.44
2022-10-04T18:59:34.444Z,81.98
2022-10-04T19:02:18.568Z,82.39
2022-10-04T19:05:17.440Z,81.90
2022-10-04T19:07:55.802Z,82.33
2022-10-04T19:10:34.528Z,82.65
2022-10-04T19:13:23.319Z,82.65
2022-10-04T19:16:20.356Z,82.52
2022-10-04T19:18:49.222Z,82.73
2022-10-04T19:21:24.254Z,82.79
2022-10-04T19:24:27.782Z,82.54
2022-10-04T19:27:03.037Z,82.20
2022-10-04T19:29:58.937Z,82.61
2022-10-04T19:32:57.511Z,82.58
2022-10-04T19:36:06.792Z,82.88
2022-10-04T19:38:52.360Z,82.83
2022-10-04T19:41:48.872Z,82.43
2022-10-04T19:44:18.188Z,82.65
2022-10-04T19:47:02.500Z,82.79
2022-10-04T19:50:10.291Z,82.62
2022-10-04T19:52:49.261Z,82.78
2022-10-04T19:55:21.816Z,82.98
2022-10-04T19:57:58.431Z,82.62
2022-10-04T20:00:24.841Z,82.42
2022-10-04T20:02:51.698Z,82.58
2022-10-04T20:05:24.884Z,82.60
2022-10-04T20:07:56.220Z,82.60
2022-10-04T20:10:33.677Z,82.44
2022-10-04T20:13:23.326Z,82.61
2022-10-04T20:15:52.692Z,82.88
2022-10-04T20:18:34.441Z,82.90
2022-10-04T20:21:01.002Z,83.11
2022-10-04T20:23:39.522Z,82.57
2022-10-04T20:26:11.592Z,82.90
2022-10-04T20:28:40.523Z,83.20
2022-10-04T20:31:19.136Z,82.86
2022-10-04T20:33:47.181Z,83.19
2022-10-04T20:36:19.380Z,83.22
2022-10-04T20:39:00.167Z,83.13
2022-10-04T20:41:30.174Z,83.20
2022-10-04T20:44:03.897Z,83.36
2022-10-04T20:46:38.019Z,83.24
2022-10-04T20:49:16.219Z,83.38
2022-10-04T20:51:49.752Z,83.17
2022-10-04T20:54:18.108Z,83.34
2022-10-04T20:56:49.597Z,83.40
2022-10-04T20:59:17.842Z,83.56
2022-10-04T21:02:01.398Z,83.38
2022-10-04T21:04:32.146Z,83.40
2022-10-04T21:07:03.298Z,83.29
2022-10-04T21:09:33.681Z,83.24
2022-10-04T21:12:01.457Z,83.55
2022-10-04T21:14:35.657Z,83.72
2022-10-04T21:17:22.676Z,84.28
2022-10-04T21:19:49.181Z,84.32
2022-10-04T21:22:15.508Z,84.13
2022-10-04T21:25:25.012Z,83.84
2022-10-04T21:27:51.402Z,84.12
2022-10-04T21:30:19.720Z,83.77
2022-10-04T21:32:46.309Z,83.87
2022-10-04T21:35:13.066Z,84.05
2022-10-04T21:37:39.499Z,84.37
2022-10-04T21:40:06.849Z,84.44
2022-10-04T21:42:33.252Z,84.32
2022-10-04T21:44:59.685Z,83.83
2022-10-04T21:47:26.065Z,83.81
2022-10-04T21:49:53.744Z,84.07
2022-10-04T21:52:20.380Z,83.96
2022-10-04T21:54:47.028Z,83.73
2022-10-04T21:57:13.511Z,83.89
2022-10-04T21:59:39.917Z,83.65
2022-10-04T22:02:07.647Z,83.74
2022-10-04T22:04:34.184Z,83.99
2022-10-04T22:07:00.622Z,83.84
2022-10-04T22:09:27.104Z,84.31
2022-10-04T22:11:54.170Z,84.53
2022-10-04T22:14:20.687Z,84.41
2022-10-04T22:16:47.376Z,84.20
2022-10-04T22:19:14.019Z,84.41
2022-10-04T22:21:40.406Z,84.87
2022-10-04T22:24:17.467Z,84.68
2022-10-04T22:26:44.301Z,84.44
2022-10-04T22:29:15.669Z,84.56
2022-10-04T22:31:49.013Z,84.74
2022-10-04T22:34:16.917Z,84.46
2022-10-04T22:36:44.171Z,84.59
2022-10-04T22:39:15.000Z,84.75
2022-10-04T22:41:53.140Z,84.79
2022-10-04T22:44:22.322Z,84.79
2022-10-04T22:46:52.614Z,85.05
2022-10-04T22:49:29.147Z,84.60
2022-10-04T22:51:57.581Z,85.17
2022-10-04T22:54:26.168Z,84.93
2022-10-04T22:56:53.624Z,84.84
2022-10-04T22:59:22.251Z,84.93
2022-10-04T23:01:48.679Z,84.97
2022-10-04T23:04:20.770Z,84.84
2022-10-04T23:06:47.762Z,85.14
2022-10-04T23:09:14.491Z,85.28
2022-10-04T23:11:41.306Z,85.06
2022-10-04T23:14:07.768Z,85.08
2022-10-04T23:16:34.267Z,85.18
2022-10-04T23:19:09.077Z,85.38
2022-10-04T23:21:38.058Z,85.08
2022-10-04T23:24:20.207Z,85.08
2022-10-04T23:26:49.504Z,85.30
2022-10-04T23:29:21.099Z,85.48
2022-10-04T23:31:49.582Z,85.33
2022-10-04T23:34:19.153Z,85.37
2022-10-04T23:36:48.443Z,85.43
2022-10-04T23:39:24.565Z,85.65
2022-10-04T23:41:53.399Z,86.06
2022-10-04T23:44:20.112Z,85.58
2022-10-04T23:46:46.906Z,85.40
2022-10-04T23:49:15.965Z,85.67
2022-10-04T23:51:44.630Z,85.22
2022-10-04T23:54:18.122Z,85.26
2022-10-04T23:56:46.312Z,85.46
2022-10-04T23:59:17.271Z,85.36
